createdAt,value
2022-12-06T00:03:25.896Z,3.00
2022-12-06T00:08:29.437Z,3.80
2022-12-06T00:13:31.991Z,4.90
2022-12-06T00:18:36.782Z,5.60
2022-12-06T00:23:41.614Z,5.70
2022-12-06T00:28:44.516Z,5.70
2022-12-06T00:33:47.525Z,6.00
2022-12-06T00:38:51.674Z,6.10
2022-12-06T00:43:54.628Z,6.20
2022-12-06T00:48:58.629Z,6.30
2022-12-06T00:54:01.223Z,6.50
2022-12-06T00:59:04.665Z,6.50
2022-12-06T01:04:07.703Z,6.60
2022-12-06T01:09:11.201Z,6.70
2022-12-06T01:14:13.652Z,6.60
2022-12-06T01:19:16.114Z,6.50
2022-12-06T01:24:18.660Z,6.50
2022-12-06T01:29:21.127Z,6.80
2022-12-06T01:34:23.673Z,6.70
2022-12-06T01:39:26.274Z,7.00
2022-12-06T01:44:50.642Z,6.90
2022-12-06T01:50:21.075Z,6.90
2022-12-06T01:55:27.646Z,6.80
2022-12-06T02:00:32.231Z,7.00
2022-12-06T02:05:40.670Z,7.10
2022-12-06T02:10:43.482Z,7.60
2022-12-06T02:21:13.218Z,7.70
2022-12-06T02:26:29.860Z,7.60
2022-12-06T02:31:41.967Z,7.60
2022-12-06T02:36:44.357Z,7.70
2022-12-06T02:42:05.540Z,7.30
2022-12-06T02:47:11.839Z,7.30
2022-12-06T02:52:15.122Z,7.80
2022-12-06T02:57:23.606Z,7.80
2022-12-06T03:02:26.384Z,8.00
2022-12-06T03:07:34.671Z,7.80
2022-12-06T03:12:37.094Z,7.80
2022-12-06T03:18:03.318Z,7.60
2022-12-06T03:23:07.698Z,7.30
2022-12-06T03:28:14.227Z,7.00
2022-12-06T03:33:19.216Z,6.90
2022-12-06T03:38:27.865Z,6.90
2022-12-06T03:43:30.518Z,7.00
2022-12-06T03:48:37.830Z,6.80
2022-12-06T03:53:48.867Z,6.70
2022-12-06T03:58:51.497Z,6.90
2022-12-06T04:03:54.079Z,7.20
2022-12-06T04:09:19.641Z,7.50
2022-12-06T04:14:22.177Z,7.50
2022-12-06T04:19:24.535Z,7.40
2022-12-06T04:24:27.005Z,7.60
2022-12-06T04:29:47.896Z,7.70
2022-12-06T04:35:08.936Z,7.40
2022-12-06T04:40:11.490Z,7.00
2022-12-06T04:45:13.950Z,6.80
2022-12-06T04:50:16.506Z,7.10
2022-12-06T04:55:18.957Z,7.40
2022-12-06T05:00:21.346Z,7.00
2022-12-06T05:05:24.886Z,6.60
2022-12-06T05:10:27.519Z,6.80
2022-12-06T05:15:30.257Z,6.70
2022-12-06T05:20:32.655Z,6.70
2022-12-06T05:25:35.151Z,6.70
2022-12-06T05:30:37.693Z,7.00
2022-12-06T05:35:40.239Z,7.10
2022-12-06T05:40:43.950Z,7.10
2022-12-06T05:45:46.433Z,6.90
2022-12-06T05:50:49.845Z,7.00
2022-12-06T05:55:52.390Z,7.20
2022-12-06T06:00:54.842Z,7.70
2022-12-06T06:05:59.385Z,7.60
2022-12-06T06:11:02.979Z,8.10
2022-12-06T06:16:05.528Z,8.10
2022-12-06T06:21:07.966Z,8.00
2022-12-06T06:26:12.034Z,8.40
2022-12-06T06:31:15.624Z,8.90
2022-12-06T06:36:18.081Z,8.80
2022-12-06T06:41:20.474Z,9.40
2022-12-06T06:46:23.121Z,9.60
2022-12-06T06:51:25.572Z,9.60
2022-12-06T06:56:28.027Z,9.20
2022-12-06T07:01:30.688Z,9.20
2022-12-06T07:06:33.151Z,8.50
2022-12-06T07:11:35.798Z,8.30
2022-12-06T07:16:38.271Z,7.80
2022-12-06T07:21:40.729Z,7.60
2022-12-06T07:26:43.270Z,7.90
2022-12-06T07:31:45.689Z,8.00
2022-12-06T07:36:48.181Z,8.10
2022-12-06T07:42:09.310Z,7.60
2022-12-06T07:47:18.181Z,7.70
2022-12-06T07:52:20.703Z,9.50
2022-12-06T07:57:23.104Z,9.30
2022-12-06T08:02:27.445Z,8.80
2022-12-06T08:07:30.008Z,8.30
2022-12-06T08:12:32.611Z,7.50
2022-12-06T08:17:34.985Z,7.40
2022-12-06T08:22:37.379Z,7.70
2022-12-06T08:27:39.774Z,7.90
2022-12-06T08:32:42.194Z,7.80
2022-12-06T08:37:44.644Z,7.80
2022-12-06T08:42:47.055Z,8.10
2022-12-06T08:47:49.474Z,9.00
2022-12-06T08:52:52.284Z,8.70
2022-12-06T08:57:54.710Z,8.50
2022-12-06T09:02:57.158Z,7.90
2022-12-06T09:07:59.622Z,7.50
2022-12-06T09:13:03.252Z,8.00
2022-12-06T09:18:05.762Z,8.20
2022-12-06T09:23:08.305Z,8.30
2022-12-06T09:28:11.857Z,8.30
2022-12-06T09:33:14.202Z,8.60
2022-12-06T09:38:17.283Z,8.50
2022-12-06T09:43:36.649Z,8.20
2022-12-06T09:48:57.877Z,8.20
2022-12-06T09:54:21.400Z,8.30
2022-12-06T09:59:55.938Z,8.30
2022-12-06T10:05:14.464Z,8.30
2022-12-06T10:10:29.030Z,8.00
2022-12-06T10:16:07.084Z,8.40
2022-12-06T10:21:15.347Z,8.60
2022-12-06T10:26:28.376Z,9.00
2022-12-06T10:31:47.101Z,9.30
2022-12-06T10:37:28.648Z,9.30
2022-12-06T10:42:42.981Z,9.10
2022-12-06T10:47:45.861Z,9.10
2022-12-06T10:53:12.559Z,9.70
2022-12-06T10:58:37.409Z,10.10
2022-12-06T11:03:42.663Z,10.70
2022-12-06T11:08:59.610Z,11.80
2022-12-06T11:14:33.122Z,11.50
2022-12-06T11:19:40.418Z,11.80
2022-12-06T11:25:06.429Z,11.80
2022-12-06T11:30:20.736Z,11.90
2022-12-06T11:35:26.318Z,11.50
2022-12-06T11:40:43.346Z,11.70
2022-12-06T11:45:48.263Z,11.50
2022-12-06T11:50:52.439Z,11.80
2022-12-06T11:56:09.651Z,11.90
2022-12-06T12:01:14.534Z,11.90
2022-12-06T12:06:27.478Z,12.20
2022-12-06T12:11:32.922Z,12.50
2022-12-06T12:16:42.785Z,12.60
2022-12-06T12:21:48.492Z,12.60
2022-12-06T12:26:55.235Z,11.50
2022-12-06T12:31:59.755Z,10.90
2022-12-06T12:37:05.074Z,11.30
2022-12-06T12:42:26.201Z,12.00
2022-12-06T12:47:29.080Z,12.00
2022-12-06T12:52:37.408Z,11.40
2022-12-06T12:57:41.270Z,11.90
2022-12-06T13:02:47.778Z,11.30
2022-12-06T13:07:55.525Z,11.40
2022-12-06T13:13:05.073Z,11.90
2022-12-06T13:18:14.117Z,11.50
2022-12-06T13:23:24.143Z,11.50
2022-12-06T13:28:33.301Z,11.40
2022-12-06T13:33:39.174Z,11.20
2022-12-06T13:38:42.615Z,11.00
2022-12-06T13:43:44.871Z,9.90
2022-12-06T13:49:05.582Z,10.60
2022-12-06T13:54:13.734Z,10.70
2022-12-06T14:02:54.054Z,9.70
2022-12-06T14:07:58.024Z,8.80
2022-12-06T14:13:01.308Z,10.40
2022-12-06T14:18:11.028Z,11.20
2022-12-06T14:23:30.814Z,11.60
2022-12-06T14:28:36.015Z,11.60
2022-12-06T14:33:39.956Z,11.20
2022-12-06T14:38:42.435Z,11.40
2022-12-06T14:43:47.326Z,11.90
2022-12-06T14:49:08.231Z,12.10
2022-12-06T14:54:34.279Z,11.80
2022-12-06T15:00:22.367Z,11.40
2022-12-06T15:04:59.811Z,11.40
2022-12-06T15:10:25.885Z,11.00
2022-12-06T15:15:35.669Z,10.80
2022-12-06T15:20:38.154Z,10.80
2022-12-06T15:25:40.605Z,11.10
2022-12-06T15:30:43.198Z,11.40
2022-12-06T15:35:45.667Z,11.60
2022-12-06T15:40:49.714Z,11.40
2022-12-06T15:45:53.157Z,11.10
2022-12-06T15:50:56.737Z,10.70
2022-12-06T15:55:59.145Z,11.00
2022-12-06T16:01:01.623Z,11.10
2022-12-06T16:06:04.086Z,11.60
2022-12-06T16:11:12.361Z,11.80
2022-12-06T16:16:16.643Z,11.80
2022-12-06T16:21:28.251Z,11.80
2022-12-06T16:26:33.167Z,10.20
2022-12-06T16:31:38.736Z,6.40
2022-12-06T16:37:01.320Z,4.90
2022-12-06T16:42:04.629Z,4.20
2022-12-06T16:47:07.998Z,3.80
2022-12-06T16:52:10.459Z,3.40
2022-12-06T16:57:13.961Z,3.20
2022-12-06T17:02:28.833Z,3.00
2022-12-06T17:07:31.418Z,2.90
2022-12-06T17:12:33.843Z,2.90
2022-12-06T17:17:36.259Z,2.80
2022-12-06T17:22:40.150Z,2.70
2022-12-06T17:27:42.795Z,2.70
2022-12-06T17:32:46.785Z,2.60
2022-12-06T17:37:51.301Z,2.60
2022-12-06T17:42:59.579Z,2.60
2022-12-06T17:48:02.029Z,2.60
2022-12-06T17:53:04.394Z,2.60
2022-12-06T17:58:06.838Z,2.50
2022-12-06T18:03:09.331Z,2.50
2022-12-06T18:08:11.744Z,2.50
2022-12-06T18:13:14.169Z,2.50
2022-12-06T18:18:16.660Z,2.50
2022-12-06T18:23:19.046Z,3.60
2022-12-06T18:28:21.638Z,4.10
2022-12-06T18:33:28.037Z,6.50
2022-12-06T18:38:33.722Z,8.30
2022-12-06T18:43:36.773Z,8.60
2022-12-06T18:53:43.668Z,9.90
2022-12-06T18:58:47.067Z,10.60
2022-12-06T19:03:50.364Z,10.80
2022-12-06T19:08:55.442Z,10.90
2022-12-06T19:14:01.683Z,11.20
2022-12-06T19:19:09.998Z,11.40
2022-12-06T19:24:18.160Z,12.30
2022-12-06T19:34:25.670Z,12.90
2022-12-06T19:39:28.188Z,12.70
2022-12-06T19:44:31.070Z,12.60
2022-12-06T19:49:33.464Z,13.80
2022-12-06T19:54:37.304Z,13.20
2022-12-06T19:59:39.798Z,12.70
2022-12-06T20:04:42.743Z,12.70
2022-12-06T20:09:45.185Z,13.10
2022-12-06T20:14:49.274Z,12.60
2022-12-06T20:19:51.708Z,12.20
2022-12-06T20:24:54.166Z,9.50
2022-12-06T20:29:56.543Z,6.20
2022-12-06T20:34:59.073Z,4.50
2022-12-06T20:40:02.091Z,3.80
2022-12-06T20:45:04.954Z,3.10
2022-12-06T20:50:07.763Z,2.80
2022-12-06T20:55:10.944Z,2.60
2022-12-06T21:00:14.186Z,2.40
2022-12-06T21:10:21.365Z,2.30
2022-12-06T21:15:23.974Z,2.30
2022-12-06T21:20:26.372Z,2.20
2022-12-06T21:25:28.854Z,2.20
2022-12-06T21:30:31.690Z,2.10
2022-12-06T21:35:34.984Z,2.20
2022-12-06T21:40:37.329Z,2.10
2022-12-06T21:45:40.950Z,2.20
2022-12-06T21:50:43.365Z,2.20
2022-12-06T21:55:45.895Z,2.20
2022-12-06T22:00:48.350Z,2.30
2022-12-06T22:05:50.737Z,2.20
2022-12-06T22:10:53.115Z,2.20
2022-12-06T22:15:55.550Z,2.10
2022-12-06T22:21:04.145Z,2.10
2022-12-06T22:26:08.616Z,2.10
2022-12-06T22:31:15.268Z,2.10
2022-12-06T22:36:19.912Z,2.10
2022-12-06T22:41:23.901Z,2.10
2022-12-06T22:46:27.880Z,2.00
2022-12-06T22:51:38.439Z,6.20
2022-12-06T22:56:48.182Z,7.60
2022-12-06T23:01:50.752Z,9.40
2022-12-06T23:06:53.231Z,10.00
2022-12-06T23:11:55.630Z,10.20
2022-12-06T23:16:58.697Z,10.80
2022-12-06T23:22:01.069Z,11.40
2022-12-06T23:27:03.483Z,11.90
2022-12-06T23:32:07.184Z,12.30
2022-12-06T23:37:09.744Z,12.30
2022-12-06T23:42:12.198Z,12.60
2022-12-06T23:47:14.545Z,12.50
2022-12-06T23:52:17.171Z,12.00
2022-12-06T23:57:19.588Z,12.50
